sensor_id;sensor_type;location;lat;lon;timestamp;P1;durP1;ratioP1;P2;durP2;ratioP2
35777;SDS011;21899;42.662;23.316;2023-03-04T00:01:15;37.95;;;19.00;;
35777;SDS011;21899;42.662;23.316;2023-03-04T00:03:40;36.15;;;18.63;;
35777;SDS011;21899;42.662;23.316;2023-03-04T00:06:06;27.67;;;14.95;;
35777;SDS011;21899;42.662;23.316;2023-03-04T00:08:31;25.33;;;15.75;;
35777;SDS011;21899;42.662;23.316;2023-03-04T00:10:57;27.17;;;14.15;;
35777;SDS011;21899;42.662;23.316;2023-03-04T00:13:22;24.15;;;13.70;;
35777;SDS011;21899;42.662;23.316;2023-03-04T00:15:49;28.95;;;15.95;;
35777;SDS011;21899;42.662;23.316;2023-03-04T00:18:14;27.38;;;14.57;;
35777;SDS011;21899;42.662;23.316;2023-03-04T00:20:40;25.88;;;14.00;;
35777;SDS011;21899;42.662;23.316;2023-03-04T00:23:05;29.65;;;14.40;;
35777;SDS011;21899;42.662;23.316;2023-03-04T00:25:31;26.50;;;14.65;;
35777;SDS011;21899;42.662;23.316;2023-03-04T00:27:57;25.60;;;13.82;;
35777;SDS011;21899;42.662;23.316;2023-03-04T00:30:23;29.42;;;14.20;;
35777;SDS011;21899;42.662;23.316;2023-03-04T00:32:48;28.50;;;14.48;;
35777;SDS011;21899;42.662;23.316;2023-03-04T00:35:14;26.08;;;14.60;;
35777;SDS011;21899;42.662;23.316;2023-03-04T00:37:40;28.23;;;14.35;;
35777;SDS011;21899;42.662;23.316;2023-03-04T00:40:05;26.45;;;14.40;;
35777;SDS011;21899;42.662;23.316;2023-03-04T00:42:31;28.02;;;15.57;;
35777;SDS011;21899;42.662;23.316;2023-03-04T00:44:57;26.38;;;14.68;;
35777;SDS011;21899;42.662;23.316;2023-03-04T00:47:22;26.27;;;13.82;;
35777;SDS011;21899;42.662;23.316;2023-03-04T00:49:48;25.17;;;14.18;;
35777;SDS011;21899;42.662;23.316;2023-03-04T00:52:13;27.95;;;14.10;;
35777;SDS011;21899;42.662;23.316;2023-03-04T00:54:38;23.98;;;13.82;;
35777;SDS011;21899;42.662;23.316;2023-03-04T00:57:04;24.52;;;13.70;;
35777;SDS011;21899;42.662;23.316;2023-03-04T00:59:29;24.35;;;14.30;;
35777;SDS011;21899;42.662;23.316;2023-03-04T01:01:55;23.27;;;13.68;;
35777;SDS011;21899;42.662;23.316;2023-03-04T01:04:20;28.50;;;15.98;;
35777;SDS011;21899;42.662;23.316;2023-03-04T01:06:45;23.92;;;13.77;;
35777;SDS011;21899;42.662;23.316;2023-03-04T01:09:11;27.60;;;14.40;;
35777;SDS011;21899;42.662;23.316;2023-03-04T01:11:36;24.48;;;14.05;;
35777;SDS011;21899;42.662;23.316;2023-03-04T01:14:02;24.95;;;13.32;;
35777;SDS011;21899;42.662;23.316;2023-03-04T01:16:27;27.73;;;13.95;;
35777;SDS011;21899;42.662;23.316;2023-03-04T01:18:53;24.58;;;13.15;;
35777;SDS011;21899;42.662;23.316;2023-03-04T01:21:18;23.13;;;13.30;;
35777;SDS011;21899;42.662;23.316;2023-03-04T01:23:44;22.90;;;13.40;;
35777;SDS011;21899;42.662;23.316;2023-03-04T01:26:09;23.92;;;13.45;;
35777;SDS011;21899;42.662;23.316;2023-03-04T01:28:34;25.10;;;14.10;;
35777;SDS011;21899;42.662;23.316;2023-03-04T01:31:02;24.05;;;13.85;;
35777;SDS011;21899;42.662;23.316;2023-03-04T01:33:29;26.88;;;14.77;;
35777;SDS011;21899;42.662;23.316;2023-03-04T01:35:55;24.70;;;13.70;;
35777;SDS011;21899;42.662;23.316;2023-03-04T01:38:22;23.92;;;13.68;;
35777;SDS011;21899;42.662;23.316;2023-03-04T01:40:48;25.42;;;13.88;;
35777;SDS011;21899;42.662;23.316;2023-03-04T01:43:18;25.88;;;14.10;;
35777;SDS011;21899;42.662;23.316;2023-03-04T01:45:49;24.92;;;12.80;;
35777;SDS011;21899;42.662;23.316;2023-03-04T01:48:17;23.70;;;13.40;;
35777;SDS011;21899;42.662;23.316;2023-03-04T01:50:46;22.67;;;13.18;;
35777;SDS011;21899;42.662;23.316;2023-03-04T01:53:14;25.02;;;13.85;;
35777;SDS011;21899;42.662;23.316;2023-03-04T01:55:43;26.55;;;13.90;;
35777;SDS011;21899;42.662;23.316;2023-03-04T01:58:09;25.77;;;13.57;;
35777;SDS011;21899;42.662;23.316;2023-03-04T02:00:36;25.20;;;13.95;;
35777;SDS011;21899;42.662;23.316;2023-03-04T02:03:06;24.67;;;13.50;;
35777;SDS011;21899;42.662;23.316;2023-03-04T02:05:37;25.02;;;14.20;;
35777;SDS011;21899;42.662;23.316;2023-03-04T02:08:04;26.90;;;13.98;;
35777;SDS011;21899;42.662;23.316;2023-03-04T02:10:30;23.65;;;13.00;;
35777;SDS011;21899;42.662;23.316;2023-03-04T02:12:57;24.27;;;12.88;;
35777;SDS011;21899;42.662;23.316;2023-03-04T02:15:23;24.88;;;13.13;;
35777;SDS011;21899;42.662;23.316;2023-03-04T02:17:49;26.55;;;13.15;;
35777;SDS011;21899;42.662;23.316;2023-03-04T02:20:34;24.52;;;13.73;;
35777;SDS011;21899;42.662;23.316;2023-03-04T02:23:16;22.77;;;11.88;;
35777;SDS011;21899;42.662;23.316;2023-03-04T02:26:06;22.67;;;14.00;;
35777;SDS011;21899;42.662;23.316;2023-03-04T02:28:50;22.27;;;12.85;;
35777;SDS011;21899;42.662;23.316;2023-03-04T02:33:48;24.63;;;13.20;;
35777;SDS011;21899;42.662;23.316;2023-03-04T02:36:14;24.55;;;14.10;;
35777;SDS011;21899;42.662;23.316;2023-03-04T02:38:39;28.60;;;13.52;;
35777;SDS011;21899;42.662;23.316;2023-03-04T02:41:05;27.55;;;13.93;;
35777;SDS011;21899;42.662;23.316;2023-03-04T02:43:36;25.83;;;13.52;;
35777;SDS011;21899;42.662;23.316;2023-03-04T02:46:02;25.48;;;13.68;;
35777;SDS011;21899;42.662;23.316;2023-03-04T02:48:27;25.30;;;15.02;;
35777;SDS011;21899;42.662;23.316;2023-03-04T02:50:52;28.05;;;13.48;;
35777;SDS011;21899;42.662;23.316;2023-03-04T02:53:19;25.17;;;13.95;;
35777;SDS011;21899;42.662;23.316;2023-03-04T02:55:46;30.40;;;14.98;;
35777;SDS011;21899;42.662;23.316;2023-03-04T02:58:11;28.63;;;14.02;;
35777;SDS011;21899;42.662;23.316;2023-03-04T03:00:38;28.90;;;15.27;;
35777;SDS011;21899;42.662;23.316;2023-03-04T03:03:04;28.70;;;14.90;;
35777;SDS011;21899;42.662;23.316;2023-03-04T03:05:30;25.05;;;14.57;;
35777;SDS011;21899;42.662;23.316;2023-03-04T03:07:57;31.83;;;15.43;;
35777;SDS011;21899;42.662;23.316;2023-03-04T03:10:23;30.30;;;15.85;;
35777;SDS011;21899;42.662;23.316;2023-03-04T03:12:48;29.95;;;15.65;;
35777;SDS011;21899;42.662;23.316;2023-03-04T03:15:14;32.47;;;15.65;;
35777;SDS011;21899;42.662;23.316;2023-03-04T03:17:39;31.52;;;16.42;;
35777;SDS011;21899;42.662;23.316;2023-03-04T03:20:05;32.75;;;15.48;;
35777;SDS011;21899;42.662;23.316;2023-03-04T03:22:32;27.30;;;15.27;;
35777;SDS011;21899;42.662;23.316;2023-03-04T03:24:57;28.08;;;15.20;;
35777;SDS011;21899;42.662;23.316;2023-03-04T03:27:23;30.40;;;15.23;;
35777;SDS011;21899;42.662;23.316;2023-03-04T03:29:48;30.38;;;16.10;;
35777;SDS011;21899;42.662;23.316;2023-03-04T03:32:14;31.17;;;15.27;;
35777;SDS011;21899;42.662;23.316;2023-03-04T03:34:39;26.92;;;14.90;;
35777;SDS011;21899;42.662;23.316;2023-03-04T03:37:04;29.77;;;14.90;;
35777;SDS011;21899;42.662;23.316;2023-03-04T03:39:30;30.30;;;16.08;;
35777;SDS011;21899;42.662;23.316;2023-03-04T03:41:55;30.65;;;15.93;;
35777;SDS011;21899;42.662;23.316;2023-03-04T03:44:20;31.00;;;16.65;;
35777;SDS011;21899;42.662;23.316;2023-03-04T03:46:46;28.27;;;15.27;;
35777;SDS011;21899;42.662;23.316;2023-03-04T03:49:11;28.75;;;15.48;;
35777;SDS011;21899;42.662;23.316;2023-03-04T03:51:37;32.47;;;16.85;;
35777;SDS011;21899;42.662;23.316;2023-03-04T03:54:03;29.35;;;15.38;;
35777;SDS011;21899;42.662;23.316;2023-03-04T03:56:28;27.58;;;15.70;;
35777;SDS011;21899;42.662;23.316;2023-03-04T03:58:54;30.70;;;14.85;;
35777;SDS011;21899;42.662;23.316;2023-03-04T04:01:19;31.17;;;16.45;;
35777;SDS011;21899;42.662;23.316;2023-03-04T04:03:44;29.48;;;14.50;;
35777;SDS011;21899;42.662;23.316;2023-03-04T04:06:10;33.08;;;15.95;;
35777;SDS011;21899;42.662;23.316;2023-03-04T04:08:35;27.90;;;14.30;;
35777;SDS011;21899;42.662;23.316;2023-03-04T04:11:00;36.72;;;17.73;;
35777;SDS011;21899;42.662;23.316;2023-03-04T04:13:26;32.05;;;16.30;;
35777;SDS011;21899;42.662;23.316;2023-03-04T04:15:51;34.13;;;17.35;;
35777;SDS011;21899;42.662;23.316;2023-03-04T04:18:17;29.92;;;16.50;;
35777;SDS011;21899;42.662;23.316;2023-03-04T04:20:43;39.15;;;18.65;;
35777;SDS011;21899;42.662;23.316;2023-03-04T04:23:08;36.70;;;16.98;;
35777;SDS011;21899;42.662;23.316;2023-03-04T04:25:35;35.42;;;17.25;;
35777;SDS011;21899;42.662;23.316;2023-03-04T04:28:00;34.38;;;17.55;;
35777;SDS011;21899;42.662;23.316;2023-03-04T04:30:25;33.85;;;16.80;;
35777;SDS011;21899;42.662;23.316;2023-03-04T04:32:51;38.13;;;17.67;;
35777;SDS011;21899;42.662;23.316;2023-03-04T04:35:16;35.95;;;17.88;;
35777;SDS011;21899;42.662;23.316;2023-03-04T04:37:42;38.05;;;19.35;;
35777;SDS011;21899;42.662;23.316;2023-03-04T04:40:07;34.58;;;18.63;;
35777;SDS011;21899;42.662;23.316;2023-03-04T04:42:33;34.35;;;18.88;;
35777;SDS011;21899;42.662;23.316;2023-03-04T04:44:59;38.83;;;18.00;;
35777;SDS011;21899;42.662;23.316;2023-03-04T04:47:24;36.20;;;18.05;;
35777;SDS011;21899;42.662;23.316;2023-03-04T04:49:50;33.78;;;17.80;;
35777;SDS011;21899;42.662;23.316;2023-03-04T04:52:15;32.38;;;17.30;;
35777;SDS011;21899;42.662;23.316;2023-03-04T04:54:41;35.03;;;18.15;;
35777;SDS011;21899;42.662;23.316;2023-03-04T04:57:06;39.17;;;19.63;;
35777;SDS011;21899;42.662;23.316;2023-03-04T04:59:32;40.25;;;17.65;;
35777;SDS011;21899;42.662;23.316;2023-03-04T05:01:57;34.55;;;17.80;;
35777;SDS011;21899;42.662;23.316;2023-03-04T05:04:22;40.70;;;20.20;;
35777;SDS011;21899;42.662;23.316;2023-03-04T05:06:48;39.00;;;18.98;;
35777;SDS011;21899;42.662;23.316;2023-03-04T05:09:13;43.67;;;18.63;;
35777;SDS011;21899;42.662;23.316;2023-03-04T05:11:39;39.05;;;18.20;;
35777;SDS011;21899;42.662;23.316;2023-03-04T05:14:04;36.35;;;18.55;;
35777;SDS011;21899;42.662;23.316;2023-03-04T05:16:29;43.38;;;19.15;;
35777;SDS011;21899;42.662;23.316;2023-03-04T05:18:55;37.63;;;18.80;;
35777;SDS011;21899;42.662;23.316;2023-03-04T05:21:20;33.20;;;17.17;;
35777;SDS011;21899;42.662;23.316;2023-03-04T05:23:46;34.05;;;16.73;;
35777;SDS011;21899;42.662;23.316;2023-03-04T05:26:12;30.55;;;17.08;;
35777;SDS011;21899;42.662;23.316;2023-03-04T05:28:39;33.10;;;16.17;;
35777;SDS011;21899;42.662;23.316;2023-03-04T05:31:05;26.67;;;14.55;;
35777;SDS011;21899;42.662;23.316;2023-03-04T05:33:31;26.25;;;13.93;;
35777;SDS011;21899;42.662;23.316;2023-03-04T05:35:57;25.70;;;14.00;;
35777;SDS011;21899;42.662;23.316;2023-03-04T05:38:23;25.50;;;12.88;;
35777;SDS011;21899;42.662;23.316;2023-03-04T05:40:53;26.58;;;11.40;;
35777;SDS011;21899;42.662;23.316;2023-03-04T05:43:20;20.77;;;9.95;;
35777;SDS011;21899;42.662;23.316;2023-03-04T05:45:47;17.45;;;9.60;;
35777;SDS011;21899;42.662;23.316;2023-03-04T05:48:13;20.27;;;9.38;;
35777;SDS011;21899;42.662;23.316;2023-03-04T05:50:38;23.27;;;8.68;;
35777;SDS011;21899;42.662;23.316;2023-03-04T05:53:04;18.63;;;8.52;;
35777;SDS011;21899;42.662;23.316;2023-03-04T05:55:29;18.95;;;10.50;;
35777;SDS011;21899;42.662;23.316;2023-03-04T05:57:55;18.52;;;9.25;;
35777;SDS011;21899;42.662;23.316;2023-03-04T06:00:21;16.25;;;7.97;;
35777;SDS011;21899;42.662;23.316;2023-03-04T06:02:47;17.80;;;8.50;;
35777;SDS011;21899;42.662;23.316;2023-03-04T06:05:13;20.00;;;9.15;;
35777;SDS011;21899;42.662;23.316;2023-03-04T06:07:39;15.40;;;8.35;;
35777;SDS011;21899;42.662;23.316;2023-03-04T06:10:07;20.20;;;8.95;;
35777;SDS011;21899;42.662;23.316;2023-03-04T06:12:35;16.60;;;9.45;;
35777;SDS011;21899;42.662;23.316;2023-03-04T06:15:00;21.52;;;11.13;;
35777;SDS011;21899;42.662;23.316;2023-03-04T06:17:27;25.50;;;13.70;;
35777;SDS011;21899;42.662;23.316;2023-03-04T06:19:53;26.38;;;12.77;;
35777;SDS011;21899;42.662;23.316;2023-03-04T06:22:18;27.65;;;15.00;;
35777;SDS011;21899;42.662;23.316;2023-03-04T06:24:43;30.40;;;14.52;;
35777;SDS011;21899;42.662;23.316;2023-03-04T06:27:09;27.63;;;13.50;;
35777;SDS011;21899;42.662;23.316;2023-03-04T06:29:34;29.25;;;15.70;;
35777;SDS011;21899;42.662;23.316;2023-03-04T06:31:59;28.63;;;15.18;;
35777;SDS011;21899;42.662;23.316;2023-03-04T06:34:25;28.30;;;15.02;;
35777;SDS011;21899;42.662;23.316;2023-03-04T06:36:50;32.42;;;14.60;;
35777;SDS011;21899;42.662;23.316;2023-03-04T06:39:16;33.08;;;14.85;;
35777;SDS011;21899;42.662;23.316;2023-03-04T06:41:41;27.92;;;14.43;;
35777;SDS011;21899;42.662;23.316;2023-03-04T06:44:07;27.38;;;14.98;;
35777;SDS011;21899;42.662;23.316;2023-03-04T06:46:33;24.98;;;13.57;;
35777;SDS011;21899;42.662;23.316;2023-03-04T06:48:58;24.13;;;13.73;;
35777;SDS011;21899;42.662;23.316;2023-03-04T06:51:24;25.55;;;13.38;;
35777;SDS011;21899;42.662;23.316;2023-03-04T06:53:49;26.20;;;14.25;;
35777;SDS011;21899;42.662;23.316;2023-03-04T06:56:15;27.73;;;13.73;;
35777;SDS011;21899;42.662;23.316;2023-03-04T06:58:40;24.63;;;13.25;;
35777;SDS011;21899;42.662;23.316;2023-03-04T07:03:39;19.10;;;10.90;;
35777;SDS011;21899;42.662;23.316;2023-03-04T07:06:05;23.92;;;13.43;;
35777;SDS011;21899;42.662;23.316;2023-03-04T07:08:31;17.38;;;9.77;;
35777;SDS011;21899;42.662;23.316;2023-03-04T07:10:57;21.65;;;11.27;;
35777;SDS011;21899;42.662;23.316;2023-03-04T07:13:22;22.35;;;11.23;;
35777;SDS011;21899;42.662;23.316;2023-03-04T07:15:48;20.52;;;10.02;;
35777;SDS011;21899;42.662;23.316;2023-03-04T07:18:13;21.08;;;10.80;;
35777;SDS011;21899;42.662;23.316;2023-03-04T07:20:38;23.33;;;12.70;;
35777;SDS011;21899;42.662;23.316;2023-03-04T07:23:04;20.38;;;11.10;;
35777;SDS011;21899;42.662;23.316;2023-03-04T07:25:29;22.15;;;11.40;;
35777;SDS011;21899;42.662;23.316;2023-03-04T07:27:54;20.70;;;12.40;;
35777;SDS011;21899;42.662;23.316;2023-03-04T07:30:20;24.02;;;11.85;;
35777;SDS011;21899;42.662;23.316;2023-03-04T07:32:45;20.60;;;11.18;;
35777;SDS011;21899;42.662;23.316;2023-03-04T07:35:11;24.55;;;12.73;;
35777;SDS011;21899;42.662;23.316;2023-03-04T07:37:36;24.45;;;13.43;;
35777;SDS011;21899;42.662;23.316;2023-03-04T07:40:02;22.92;;;12.90;;
35777;SDS011;21899;42.662;23.316;2023-03-04T07:42:28;25.00;;;13.23;;
35777;SDS011;21899;42.662;23.316;2023-03-04T07:44:53;27.15;;;13.02;;
35777;SDS011;21899;42.662;23.316;2023-03-04T07:47:19;28.75;;;13.15;;
35777;SDS011;21899;42.662;23.316;2023-03-04T07:49:45;22.52;;;11.98;;
35777;SDS011;21899;42.662;23.316;2023-03-04T07:52:10;22.23;;;12.52;;
35777;SDS011;21899;42.662;23.316;2023-03-04T07:54:38;20.48;;;11.75;;
35777;SDS011;21899;42.662;23.316;2023-03-04T07:57:03;24.98;;;11.73;;
35777;SDS011;21899;42.662;23.316;2023-03-04T07:59:29;20.80;;;12.70;;
35777;SDS011;21899;42.662;23.316;2023-03-04T08:01:54;22.65;;;12.35;;
35777;SDS011;21899;42.662;23.316;2023-03-04T08:04:19;21.45;;;11.95;;
35777;SDS011;21899;42.662;23.316;2023-03-04T08:06:45;22.25;;;11.32;;
35777;SDS011;21899;42.662;23.316;2023-03-04T08:09:12;18.88;;;10.43;;
35777;SDS011;21899;42.662;23.316;2023-03-04T08:11:38;20.23;;;11.15;;
35777;SDS011;21899;42.662;23.316;2023-03-04T08:14:03;24.50;;;11.95;;
35777;SDS011;21899;42.662;23.316;2023-03-04T08:16:29;24.35;;;11.60;;
35777;SDS011;21899;42.662;23.316;2023-03-04T08:18:55;23.58;;;11.52;;
35777;SDS011;21899;42.662;23.316;2023-03-04T08:21:25;19.48;;;10.70;;
35777;SDS011;21899;42.662;23.316;2023-03-04T08:23:51;21.23;;;11.27;;
35777;SDS011;21899;42.662;23.316;2023-03-04T08:26:19;19.55;;;12.00;;
35777;SDS011;21899;42.662;23.316;2023-03-04T08:28:47;23.48;;;12.30;;
35777;SDS011;21899;42.662;23.316;2023-03-04T08:31:13;23.83;;;12.65;;
35777;SDS011;21899;42.662;23.316;2023-03-04T08:33:39;21.15;;;11.05;;
35777;SDS011;21899;42.662;23.316;2023-03-04T08:36:05;22.20;;;12.25;;
35777;SDS011;21899;42.662;23.316;2023-03-04T08:38:31;25.35;;;11.60;;
35777;SDS011;21899;42.662;23.316;2023-03-04T08:40:57;20.15;;;10.98;;
35777;SDS011;21899;42.662;23.316;2023-03-04T08:43:23;26.40;;;12.15;;
35777;SDS011;21899;42.662;23.316;2023-03-04T08:45:50;20.90;;;11.20;;
35777;SDS011;21899;42.662;23.316;2023-03-04T08:48:17;20.73;;;10.80;;
35777;SDS011;21899;42.662;23.316;2023-03-04T08:50:43;30.00;;;11.88;;
35777;SDS011;21899;42.662;23.316;2023-03-04T08:53:09;24.08;;;10.95;;
35777;SDS011;21899;42.662;23.316;2023-03-04T08:55:36;25.23;;;11.25;;
35777;SDS011;21899;42.662;23.316;2023-03-04T08:58:02;25.30;;;10.80;;
35777;SDS011;21899;42.662;23.316;2023-03-04T09:00:28;21.45;;;10.48;;
35777;SDS011;21899;42.662;23.316;2023-03-04T09:02:53;18.35;;;10.27;;
35777;SDS011;21899;42.662;23.316;2023-03-04T09:05:19;24.30;;;10.98;;
35777;SDS011;21899;42.662;23.316;2023-03-04T09:07:45;19.77;;;11.10;;
35777;SDS011;21899;42.662;23.316;2023-03-04T09:10:11;25.00;;;12.52;;
35777;SDS011;21899;42.662;23.316;2023-03-04T09:12:37;22.77;;;12.13;;
35777;SDS011;21899;42.662;23.316;2023-03-04T09:15:02;21.48;;;11.68;;
35777;SDS011;21899;42.662;23.316;2023-03-04T09:17:29;17.55;;;10.10;;
35777;SDS011;21899;42.662;23.316;2023-03-04T09:19:55;20.08;;;11.13;;
35777;SDS011;21899;42.662;23.316;2023-03-04T09:22:21;19.50;;;10.80;;
35777;SDS011;21899;42.662;23.316;2023-03-04T09:24:46;21.70;;;10.88;;
35777;SDS011;21899;42.662;23.316;2023-03-04T09:27:11;23.65;;;12.00;;
35777;SDS011;21899;42.662;23.316;2023-03-04T09:29:37;23.85;;;11.25;;
35777;SDS011;21899;42.662;23.316;2023-03-04T09:32:02;21.88;;;11.70;;
35777;SDS011;21899;42.662;23.316;2023-03-04T09:34:27;21.75;;;11.13;;
35777;SDS011;21899;42.662;23.316;2023-03-04T09:36:53;23.33;;;11.48;;
35777;SDS011;21899;42.662;23.316;2023-03-04T09:39:18;20.08;;;11.57;;
35777;SDS011;21899;42.662;23.316;2023-03-04T09:41:47;21.83;;;11.80;;
35777;SDS011;21899;42.662;23.316;2023-03-04T09:44:21;19.17;;;10.70;;
35777;SDS011;21899;42.662;23.316;2023-03-04T09:46:59;20.63;;;11.02;;
35777;SDS011;21899;42.662;23.316;2023-03-04T09:49:28;20.08;;;11.48;;
35777;SDS011;21899;42.662;23.316;2023-03-04T09:52:03;20.10;;;11.82;;
35777;SDS011;21899;42.662;23.316;2023-03-04T09:57:50;19.00;;;11.63;;
35777;SDS011;21899;42.662;23.316;2023-03-04T10:06:16;21.23;;;11.95;;
35777;SDS011;21899;42.662;23.316;2023-03-04T10:11:15;24.60;;;11.35;;
35777;SDS011;21899;42.662;23.316;2023-03-04T10:16:18;21.58;;;11.40;;
35777;SDS011;21899;42.662;23.316;2023-03-04T10:18:57;22.10;;;11.05;;
35777;SDS011;21899;42.662;23.316;2023-03-04T10:21:46;21.52;;;11.23;;
35777;SDS011;21899;42.662;23.316;2023-03-04T10:24:15;21.33;;;11.38;;
35777;SDS011;21899;42.662;23.316;2023-03-04T10:26:43;16.92;;;10.68;;
35777;SDS011;21899;42.662;23.316;2023-03-04T10:29:15;24.30;;;11.30;;
35777;SDS011;21899;42.662;23.316;2023-03-04T10:31:42;21.63;;;11.73;;
35777;SDS011;21899;42.662;23.316;2023-03-04T10:34:09;19.98;;;11.63;;
35777;SDS011;21899;42.662;23.316;2023-03-04T10:39:08;18.40;;;10.85;;
35777;SDS011;21899;42.662;23.316;2023-03-04T10:41:36;18.60;;;11.05;;
35777;SDS011;21899;42.662;23.316;2023-03-04T10:46:38;24.52;;;12.50;;
35777;SDS011;21899;42.662;23.316;2023-03-04T10:49:05;20.35;;;11.10;;
35777;SDS011;21899;42.662;23.316;2023-03-04T10:51:31;22.50;;;10.98;;
35777;SDS011;21899;42.662;23.316;2023-03-04T10:53:57;23.02;;;12.35;;
35777;SDS011;21899;42.662;23.316;2023-03-04T10:56:36;24.73;;;12.63;;
35777;SDS011;21899;42.662;23.316;2023-03-04T11:01:58;23.25;;;12.13;;
35777;SDS011;21899;42.662;23.316;2023-03-04T11:04:26;20.23;;;12.32;;
35777;SDS011;21899;42.662;23.316;2023-03-04T11:06:56;26.10;;;13.13;;
35777;SDS011;21899;42.662;23.316;2023-03-04T11:09:23;25.85;;;13.32;;
35777;SDS011;21899;42.662;23.316;2023-03-04T11:11:53;24.42;;;13.23;;
35777;SDS011;21899;42.662;23.316;2023-03-04T11:14:26;25.13;;;13.73;;
35777;SDS011;21899;42.662;23.316;2023-03-04T11:19:30;24.25;;;13.38;;
35777;SDS011;21899;42.662;23.316;2023-03-04T11:22:02;29.88;;;13.45;;
35777;SDS011;21899;42.662;23.316;2023-03-04T11:24:28;24.15;;;13.88;;
35777;SDS011;21899;42.662;23.316;2023-03-04T11:27:17;23.92;;;12.60;;
35777;SDS011;21899;42.662;23.316;2023-03-04T11:29:56;27.48;;;13.88;;
35777;SDS011;21899;42.662;23.316;2023-03-04T11:32:29;26.67;;;14.57;;
35777;SDS011;21899;42.662;23.316;2023-03-04T11:35:00;25.00;;;14.23;;
35777;SDS011;21899;42.662;23.316;2023-03-04T11:37:46;23.40;;;12.90;;
35777;SDS011;21899;42.662;23.316;2023-03-04T11:40:22;29.00;;;14.38;;
35777;SDS011;21899;42.662;23.316;2023-03-04T11:42:58;25.48;;;14.25;;
35777;SDS011;21899;42.662;23.316;2023-03-04T11:48:35;27.35;;;13.85;;
35777;SDS011;21899;42.662;23.316;2023-03-04T11:51:15;24.88;;;13.45;;
35777;SDS011;21899;42.662;23.316;2023-03-04T11:56:31;30.23;;;15.32;;
35777;SDS011;21899;42.662;23.316;2023-03-04T12:02:12;31.65;;;14.38;;
35777;SDS011;21899;42.662;23.316;2023-03-04T12:15:35;30.52;;;14.55;;
35777;SDS011;21899;42.662;23.316;2023-03-04T12:18:09;25.63;;;14.38;;
35777;SDS011;21899;42.662;23.316;2023-03-04T12:20:58;29.90;;;14.30;;
35777;SDS011;21899;42.662;23.316;2023-03-04T12:39:53;27.77;;;14.50;;
35777;SDS011;21899;42.662;23.316;2023-03-04T12:56:05;24.75;;;15.13;;
35777;SDS011;21899;42.662;23.316;2023-03-04T12:58:46;29.08;;;15.23;;
35777;SDS011;21899;42.662;23.316;2023-03-04T13:01:15;28.42;;;15.80;;
35777;SDS011;21899;42.662;23.316;2023-03-04T13:04:02;25.27;;;14.40;;
35777;SDS011;21899;42.662;23.316;2023-03-04T13:12:15;24.00;;;14.48;;
35777;SDS011;21899;42.662;23.316;2023-03-04T13:15:15;24.38;;;14.40;;
35777;SDS011;21899;42.662;23.316;2023-03-04T13:17:39;30.52;;;15.15;;
35777;SDS011;21899;42.662;23.316;2023-03-04T13:20:17;27.10;;;15.13;;
35777;SDS011;21899;42.662;23.316;2023-03-04T13:22:54;26.63;;;13.70;;
35777;SDS011;21899;42.662;23.316;2023-03-04T13:25:29;29.83;;;16.13;;
35777;SDS011;21899;42.662;23.316;2023-03-04T13:31:24;26.50;;;15.63;;
35777;SDS011;21899;42.662;23.316;2023-03-04T13:36:00;28.90;;;15.43;;
35777;SDS011;21899;42.662;23.316;2023-03-04T13:43:25;25.92;;;14.52;;
35777;SDS011;21899;42.662;23.316;2023-03-04T13:45:52;25.35;;;14.20;;
35777;SDS011;21899;42.662;23.316;2023-03-04T13:48:24;31.38;;;15.57;;
35777;SDS011;21899;42.662;23.316;2023-03-04T13:50:54;28.73;;;15.15;;
35777;SDS011;21899;42.662;23.316;2023-03-04T13:53:30;31.13;;;15.93;;
35777;SDS011;21899;42.662;23.316;2023-03-04T13:56:08;34.30;;;16.27;;
35777;SDS011;21899;42.662;23.316;2023-03-04T13:58:38;31.85;;;16.08;;
35777;SDS011;21899;42.662;23.316;2023-03-04T14:01:04;29.63;;;15.95;;
35777;SDS011;21899;42.662;23.316;2023-03-04T14:03:31;30.50;;;16.27;;
35777;SDS011;21899;42.662;23.316;2023-03-04T14:08:36;27.08;;;16.00;;
35777;SDS011;21899;42.662;23.316;2023-03-04T14:11:02;34.00;;;15.48;;
35777;SDS011;21899;42.662;23.316;2023-03-04T14:13:27;30.15;;;16.15;;
35777;SDS011;21899;42.662;23.316;2023-03-04T14:15:56;25.20;;;15.80;;
35777;SDS011;21899;42.662;23.316;2023-03-04T14:18:23;34.58;;;15.23;;
35777;SDS011;21899;42.662;23.316;2023-03-04T14:20:49;29.02;;;16.13;;
35777;SDS011;21899;42.662;23.316;2023-03-04T14:23:23;31.77;;;17.25;;
35777;SDS011;21899;42.662;23.316;2023-03-04T14:26:12;27.02;;;15.95;;
35777;SDS011;21899;42.662;23.316;2023-03-04T14:28:43;27.50;;;15.98;;
35777;SDS011;21899;42.662;23.316;2023-03-04T14:31:17;31.10;;;17.50;;
35777;SDS011;21899;42.662;23.316;2023-03-04T14:33:48;30.52;;;16.67;;
35777;SDS011;21899;42.662;23.316;2023-03-04T14:36:17;27.60;;;15.45;;
35777;SDS011;21899;42.662;23.316;2023-03-04T14:38:47;30.08;;;17.30;;
35777;SDS011;21899;42.662;23.316;2023-03-04T14:41:20;31.75;;;16.23;;
35777;SDS011;21899;42.662;23.316;2023-03-04T14:44:07;32.25;;;16.75;;
35777;SDS011;21899;42.662;23.316;2023-03-04T14:46:38;29.00;;;15.85;;
35777;SDS011;21899;42.662;23.316;2023-03-04T14:49:09;32.17;;;17.05;;
35777;SDS011;21899;42.662;23.316;2023-03-04T14:51:50;29.15;;;15.88;;
35777;SDS011;21899;42.662;23.316;2023-03-04T14:56:52;30.98;;;17.17;;
35777;SDS011;21899;42.662;23.316;2023-03-04T14:59:26;30.63;;;17.23;;
35777;SDS011;21899;42.662;23.316;2023-03-04T15:01:52;26.58;;;15.90;;
35777;SDS011;21899;42.662;23.316;2023-03-04T15:04:18;34.03;;;17.60;;
35777;SDS011;21899;42.662;23.316;2023-03-04T15:06:51;33.90;;;16.40;;
35777;SDS011;21899;42.662;23.316;2023-03-04T15:09:21;31.17;;;16.45;;
35777;SDS011;21899;42.662;23.316;2023-03-04T15:11:50;32.35;;;16.52;;
35777;SDS011;21899;42.662;23.316;2023-03-04T15:20:35;31.50;;;16.98;;
35777;SDS011;21899;42.662;23.316;2023-03-04T15:25:17;31.95;;;16.95;;
35777;SDS011;21899;42.662;23.316;2023-03-04T15:27:46;30.48;;;17.60;;
35777;SDS011;21899;42.662;23.316;2023-03-04T15:30:16;31.10;;;17.10;;
35777;SDS011;21899;42.662;23.316;2023-03-04T15:32:44;52.80;;;18.08;;
35777;SDS011;21899;42.662;23.316;2023-03-04T15:35:13;31.50;;;15.82;;
35777;SDS011;21899;42.662;23.316;2023-03-04T15:37:40;32.38;;;17.27;;
35777;SDS011;21899;42.662;23.316;2023-03-04T15:40:48;33.03;;;17.65;;
35777;SDS011;21899;42.662;23.316;2023-03-04T15:42:57;37.03;;;16.83;;
35777;SDS011;21899;42.662;23.316;2023-03-04T15:47:54;32.65;;;16.80;;
35777;SDS011;21899;42.662;23.316;2023-03-04T15:50:20;31.40;;;18.50;;
35777;SDS011;21899;42.662;23.316;2023-03-04T15:52:45;33.28;;;17.10;;
35777;SDS011;21899;42.662;23.316;2023-03-04T15:55:17;33.88;;;17.77;;
35777;SDS011;21899;42.662;23.316;2023-03-04T15:57:45;32.92;;;17.52;;
35777;SDS011;21899;42.662;23.316;2023-03-04T16:00:14;33.63;;;17.75;;
35777;SDS011;21899;42.662;23.316;2023-03-04T16:02:40;29.17;;;17.08;;
35777;SDS011;21899;42.662;23.316;2023-03-04T16:05:06;34.53;;;18.77;;